<?xml version="1.0" encoding="UTF-8" standalone="no" ?>
<gpx xmlns="http://www.topografix.com/GPX/1/1" xmlns:xsi="http://www.w3.org/2001/XMLSchema-instance" xsi:schemaLocation="http://www.topografix.com/GPX/1/1 http://www.topografix.com/GPX/1/1/gpx.xsd" version="1.1" creator="VisuGPX - https://www.visugpx.com">
  <metadata>
    <name>COLMIANE CAIRE GROS 12 KM 680 M</name>
    <desc><![CDATA[COLMIANE CAIRE GROS 
12  KM 680 M]]></desc>
  </metadata>
  <trk>
    <name><![CDATA[--Saint-Martin-Vésubie-- OR-5404883:COLMIANE STATION CAIRE GROS]]></name>
    <trkseg>
      <trkpt lat="44.07115" lon="7.22047">
        <ele>1510</ele>
        <time>2015-10-28T09:46:52Z</time>
      </trkpt>
      <trkpt lat="44.07087" lon="7.21935">
        <ele>1507</ele>
        <time>2015-10-28T09:48:52Z</time>
      </trkpt>
      <trkpt lat="44.07016" lon="7.21845">
        <ele>1514</ele>
        <time>2015-10-28T09:50:52Z</time>
      </trkpt>
      <trkpt lat="44.06899" lon="7.21798">
        <ele>1523</ele>
        <time>2015-10-28T09:52:52Z</time>
      </trkpt>
      <trkpt lat="44.06767" lon="7.21785">
        <ele>1516</ele>
        <time>2015-10-28T09:54:52Z</time>
      </trkpt>
      <trkpt lat="44.06653" lon="7.21845">
        <ele>1522</ele>
        <time>2015-10-28T09:56:52Z</time>
      </trkpt>
      <trkpt lat="44.06582" lon="7.21854">
        <ele>1524</ele>
        <time>2015-10-28T09:58:52Z</time>
      </trkpt>
      <trkpt lat="44.06594" lon="7.21669">
        <ele>1507</ele>
        <time>2015-10-28T10:00:52Z</time>
      </trkpt>
      <trkpt lat="44.06594" lon="7.21575">
        <ele>1500</ele>
        <time>2015-10-28T10:02:52Z</time>
      </trkpt>
      <trkpt lat="44.06548" lon="7.21489">
        <ele>1511</ele>
        <time>2015-10-28T10:04:52Z</time>
      </trkpt>
      <trkpt lat="44.06452" lon="7.21321">
        <ele>1529</ele>
        <time>2015-10-28T10:06:52Z</time>
      </trkpt>
      <trkpt lat="44.06378" lon="7.21261">
        <ele>1543</ele>
        <time>2015-10-28T10:08:52Z</time>
      </trkpt>
      <trkpt lat="44.06313" lon="7.213">
        <ele>1565</ele>
        <time>2015-10-28T10:10:52Z</time>
      </trkpt>
      <trkpt lat="44.06162" lon="7.21253">
        <ele>1595</ele>
        <time>2015-10-28T10:12:52Z</time>
      </trkpt>
      <trkpt lat="44.05999" lon="7.21248">
        <ele>1611</ele>
        <time>2015-10-28T10:14:52Z</time>
      </trkpt>
      <trkpt lat="44.05925" lon="7.21317">
        <ele>1620</ele>
        <time>2015-10-28T10:16:52Z</time>
      </trkpt>
      <trkpt lat="44.05845" lon="7.2136">
        <ele>1624</ele>
        <time>2015-10-28T10:18:52Z</time>
      </trkpt>
      <trkpt lat="44.05746" lon="7.21454">
        <ele>1669</ele>
        <time>2015-10-28T10:20:52Z</time>
      </trkpt>
      <trkpt lat="44.05629" lon="7.21364">
        <ele>1684</ele>
        <time>2015-10-28T10:22:52Z</time>
      </trkpt>
      <trkpt lat="44.05579" lon="7.2136">
        <ele>1703</ele>
        <time>2015-10-28T10:24:52Z</time>
      </trkpt>
      <trkpt lat="44.05533" lon="7.21317">
        <ele>1711</ele>
        <time>2015-10-28T10:26:52Z</time>
      </trkpt>
      <trkpt lat="44.05524" lon="7.21248">
        <ele>1695</ele>
        <time>2015-10-28T10:28:52Z</time>
      </trkpt>
      <trkpt lat="44.05382" lon="7.21261">
        <ele>1717</ele>
        <time>2015-10-28T10:30:52Z</time>
      </trkpt>
      <trkpt lat="44.05277" lon="7.21261">
        <ele>1712</ele>
        <time>2015-10-28T10:32:52Z</time>
      </trkpt>
      <trkpt lat="44.05231" lon="7.2121">
        <ele>1707</ele>
        <time>2015-10-28T10:34:52Z</time>
      </trkpt>
      <trkpt lat="44.05191" lon="7.21163">
        <ele>1715</ele>
        <time>2015-10-28T10:36:52Z</time>
      </trkpt>
      <trkpt lat="44.05111" lon="7.2115">
        <ele>1721</ele>
        <time>2015-10-28T10:38:52Z</time>
      </trkpt>
      <trkpt lat="44.05148" lon="7.21111">
        <ele>1728</ele>
        <time>2015-10-28T10:40:52Z</time>
      </trkpt>
      <trkpt lat="44.05098" lon="7.21103">
        <ele>1734</ele>
        <time>2015-10-28T10:42:52Z</time>
      </trkpt>
      <trkpt lat="44.05104" lon="7.21047">
        <ele>1752</ele>
        <time>2015-10-28T10:44:52Z</time>
      </trkpt>
      <trkpt lat="44.05123" lon="7.20961">
        <ele>1769</ele>
        <time>2015-10-28T10:46:52Z</time>
      </trkpt>
      <trkpt lat="44.05117" lon="7.20871">
        <ele>1793</ele>
        <time>2015-10-28T10:48:52Z</time>
      </trkpt>
      <trkpt lat="44.05181" lon="7.20738">
        <ele>1762</ele>
        <time>2015-10-28T10:50:52Z</time>
      </trkpt>
      <trkpt lat="44.05104" lon="7.20643">
        <ele>1784</ele>
        <time>2015-10-28T10:52:52Z</time>
      </trkpt>
      <trkpt lat="44.04993" lon="7.20553">
        <ele>1807</ele>
        <time>2015-10-28T10:54:52Z</time>
      </trkpt>
      <trkpt lat="44.04929" lon="7.20433">
        <ele>1816</ele>
        <time>2015-10-28T10:56:52Z</time>
      </trkpt>
      <trkpt lat="44.04842" lon="7.20261">
        <ele>1846</ele>
        <time>2015-10-28T10:58:52Z</time>
      </trkpt>
      <trkpt lat="44.04808" lon="7.20199">
        <ele>1854</ele>
        <time>2015-10-28T11:00:52Z</time>
      </trkpt>
      <trkpt lat="44.04782" lon="7.20193">
        <ele>1870</ele>
        <time>2015-10-28T11:02:52Z</time>
      </trkpt>
      <trkpt lat="44.04759" lon="7.20148">
        <ele>1883</ele>
        <time>2015-10-28T11:04:52Z</time>
      </trkpt>
      <trkpt lat="44.0475" lon="7.20191">
        <ele>1892</ele>
        <time>2015-10-28T11:06:52Z</time>
      </trkpt>
      <trkpt lat="44.04737" lon="7.20141">
        <ele>1891</ele>
        <time>2015-10-28T11:08:52Z</time>
      </trkpt>
      <trkpt lat="44.04725" lon="7.2018">
        <ele>1894</ele>
        <time>2015-10-28T11:10:52Z</time>
      </trkpt>
      <trkpt lat="44.04711" lon="7.20139">
        <ele>1893</ele>
        <time>2015-10-28T11:12:52Z</time>
      </trkpt>
      <trkpt lat="44.04685" lon="7.20169">
        <ele>1897</ele>
        <time>2015-10-28T11:14:52Z</time>
      </trkpt>
      <trkpt lat="44.04677" lon="7.20197">
        <ele>1907</ele>
        <time>2015-10-28T11:16:52Z</time>
      </trkpt>
      <trkpt lat="44.04623" lon="7.20257">
        <ele>1919</ele>
        <time>2015-10-28T11:18:52Z</time>
      </trkpt>
      <trkpt lat="44.0456" lon="7.20332">
        <ele>1927</ele>
        <time>2015-10-28T11:20:52Z</time>
      </trkpt>
      <trkpt lat="44.04594" lon="7.2033">
        <ele>1939</ele>
        <time>2015-10-28T11:22:52Z</time>
      </trkpt>
      <trkpt lat="44.04569" lon="7.20375">
        <ele>1946</ele>
        <time>2015-10-28T11:24:52Z</time>
      </trkpt>
      <trkpt lat="44.04603" lon="7.20377">
        <ele>1958</ele>
        <time>2015-10-28T11:26:52Z</time>
      </trkpt>
      <trkpt lat="44.0458" lon="7.20452">
        <ele>1979</ele>
        <time>2015-10-28T11:28:52Z</time>
      </trkpt>
      <trkpt lat="44.04606" lon="7.2047">
        <ele>1995</ele>
        <time>2015-10-28T11:30:52Z</time>
      </trkpt>
      <trkpt lat="44.04569" lon="7.2053">
        <ele>2005</ele>
        <time>2015-10-28T11:32:52Z</time>
      </trkpt>
      <trkpt lat="44.04608" lon="7.20517">
        <ele>2014</ele>
        <time>2015-10-28T11:34:52Z</time>
      </trkpt>
      <trkpt lat="44.04571" lon="7.20592">
        <ele>2027</ele>
        <time>2015-10-28T11:36:52Z</time>
      </trkpt>
      <trkpt lat="44.04629" lon="7.20585">
        <ele>2041</ele>
        <time>2015-10-28T11:38:52Z</time>
      </trkpt>
      <trkpt lat="44.04597" lon="7.2065">
        <ele>2053</ele>
        <time>2015-10-28T11:40:52Z</time>
      </trkpt>
      <trkpt lat="44.04565" lon="7.20706">
        <ele>2058</ele>
        <time>2015-10-28T11:42:52Z</time>
      </trkpt>
      <trkpt lat="44.04622" lon="7.20688">
        <ele>2062</ele>
        <time>2015-10-28T11:44:52Z</time>
      </trkpt>
      <trkpt lat="44.04674" lon="7.20667">
        <ele>2066</ele>
        <time>2015-10-28T11:46:52Z</time>
      </trkpt>
      <trkpt lat="44.04609" lon="7.20697">
        <ele>2060</ele>
        <time>2015-10-28T11:48:52Z</time>
      </trkpt>
      <trkpt lat="44.04578" lon="7.20703">
        <ele>2059</ele>
        <time>2015-10-28T11:50:52Z</time>
      </trkpt>
      <trkpt lat="44.04571" lon="7.2068">
        <ele>2056</ele>
        <time>2015-10-28T11:52:52Z</time>
      </trkpt>
      <trkpt lat="44.04605" lon="7.20633">
        <ele>2049</ele>
        <time>2015-10-28T11:54:52Z</time>
      </trkpt>
      <trkpt lat="44.04622" lon="7.20603">
        <ele>2044</ele>
        <time>2015-10-28T11:56:52Z</time>
      </trkpt>
      <trkpt lat="44.04617" lon="7.20579">
        <ele>2035</ele>
        <time>2015-10-28T11:58:52Z</time>
      </trkpt>
      <trkpt lat="44.04582" lon="7.20592">
        <ele>2029</ele>
        <time>2015-10-28T12:00:52Z</time>
      </trkpt>
      <trkpt lat="44.04575" lon="7.2058">
        <ele>2023</ele>
        <time>2015-10-28T12:02:52Z</time>
      </trkpt>
      <trkpt lat="44.04604" lon="7.20527">
        <ele>2015</ele>
        <time>2015-10-28T12:04:52Z</time>
      </trkpt>
      <trkpt lat="44.04597" lon="7.2052">
        <ele>2011</ele>
        <time>2015-10-28T12:06:52Z</time>
      </trkpt>
      <trkpt lat="44.04575" lon="7.20529">
        <ele>2006</ele>
        <time>2015-10-28T12:08:52Z</time>
      </trkpt>
      <trkpt lat="44.04578" lon="7.20518">
        <ele>2004</ele>
        <time>2015-10-28T12:10:52Z</time>
      </trkpt>
      <trkpt lat="44.046" lon="7.20477">
        <ele>1996</ele>
        <time>2015-10-28T12:12:52Z</time>
      </trkpt>
      <trkpt lat="44.04598" lon="7.20464">
        <ele>1990</ele>
        <time>2015-10-28T12:14:52Z</time>
      </trkpt>
      <trkpt lat="44.04586" lon="7.20457">
        <ele>1983</ele>
        <time>2015-10-28T12:16:52Z</time>
      </trkpt>
      <trkpt lat="44.04584" lon="7.20442">
        <ele>1977</ele>
        <time>2015-10-28T12:18:52Z</time>
      </trkpt>
      <trkpt lat="44.04599" lon="7.20387">
        <ele>1960</ele>
        <time>2015-10-28T12:20:52Z</time>
      </trkpt>
      <trkpt lat="44.04596" lon="7.20377">
        <ele>1956</ele>
        <time>2015-10-28T12:22:52Z</time>
      </trkpt>
      <trkpt lat="44.04577" lon="7.20376">
        <ele>1950</ele>
        <time>2015-10-28T12:24:52Z</time>
      </trkpt>
      <trkpt lat="44.04575" lon="7.20365">
        <ele>1945</ele>
        <time>2015-10-28T12:26:52Z</time>
      </trkpt>
      <trkpt lat="44.04589" lon="7.20342">
        <ele>1942</ele>
        <time>2015-10-28T12:28:52Z</time>
      </trkpt>
      <trkpt lat="44.04587" lon="7.20331">
        <ele>1938</ele>
        <time>2015-10-28T12:30:52Z</time>
      </trkpt>
      <trkpt lat="44.04567" lon="7.20332">
        <ele>1930</ele>
        <time>2015-10-28T12:32:52Z</time>
      </trkpt>
      <trkpt lat="44.04569" lon="7.20321">
        <ele>1927</ele>
        <time>2015-10-28T12:34:52Z</time>
      </trkpt>
      <trkpt lat="44.04631" lon="7.20247">
        <ele>1917</ele>
        <time>2015-10-28T12:36:52Z</time>
      </trkpt>
      <trkpt lat="44.04683" lon="7.20191">
        <ele>1904</ele>
        <time>2015-10-28T12:38:52Z</time>
      </trkpt>
      <trkpt lat="44.0469" lon="7.20159">
        <ele>1895</ele>
        <time>2015-10-28T12:40:52Z</time>
      </trkpt>
      <trkpt lat="44.04706" lon="7.20146">
        <ele>1893</ele>
        <time>2015-10-28T12:42:52Z</time>
      </trkpt>
      <trkpt lat="44.04716" lon="7.20147">
        <ele>1892</ele>
        <time>2015-10-28T12:44:52Z</time>
      </trkpt>
      <trkpt lat="44.04721" lon="7.2017">
        <ele>1893</ele>
        <time>2015-10-28T12:46:52Z</time>
      </trkpt>
      <trkpt lat="44.0473" lon="7.20171">
        <ele>1891</ele>
        <time>2015-10-28T12:48:52Z</time>
      </trkpt>
      <trkpt lat="44.04733" lon="7.20151">
        <ele>1891</ele>
        <time>2015-10-28T12:50:52Z</time>
      </trkpt>
      <trkpt lat="44.04742" lon="7.20151">
        <ele>1890</ele>
        <time>2015-10-28T12:52:52Z</time>
      </trkpt>
      <trkpt lat="44.04747" lon="7.20179">
        <ele>1890</ele>
        <time>2015-10-28T12:54:52Z</time>
      </trkpt>
      <trkpt lat="44.04754" lon="7.20176">
        <ele>1887</ele>
        <time>2015-10-28T12:56:52Z</time>
      </trkpt>
      <trkpt lat="44.04754" lon="7.20158">
        <ele>1886</ele>
        <time>2015-10-28T12:58:52Z</time>
      </trkpt>
      <trkpt lat="44.04765" lon="7.20158">
        <ele>1878</ele>
        <time>2015-10-28T13:00:52Z</time>
      </trkpt>
      <trkpt lat="44.04775" lon="7.20185">
        <ele>1874</ele>
        <time>2015-10-28T13:02:52Z</time>
      </trkpt>
      <trkpt lat="44.04791" lon="7.20196">
        <ele>1865</ele>
        <time>2015-10-28T13:04:52Z</time>
      </trkpt>
      <trkpt lat="44.04802" lon="7.20198">
        <ele>1858</ele>
        <time>2015-10-28T13:06:52Z</time>
      </trkpt>
      <trkpt lat="44.04839" lon="7.20251">
        <ele>1845</ele>
        <time>2015-10-28T13:08:52Z</time>
      </trkpt>
      <trkpt lat="44.04934" lon="7.20442">
        <ele>1815</ele>
        <time>2015-10-28T13:10:52Z</time>
      </trkpt>
      <trkpt lat="44.04999" lon="7.20562">
        <ele>1805</ele>
        <time>2015-10-28T13:12:52Z</time>
      </trkpt>
      <trkpt lat="44.05112" lon="7.2065">
        <ele>1783</ele>
        <time>2015-10-28T13:14:52Z</time>
      </trkpt>
      <trkpt lat="44.05175" lon="7.20729">
        <ele>1765</ele>
        <time>2015-10-28T13:16:52Z</time>
      </trkpt>
      <trkpt lat="44.05179" lon="7.20746">
        <ele>1764</ele>
        <time>2015-10-28T13:18:52Z</time>
      </trkpt>
      <trkpt lat="44.05116" lon="7.20882">
        <ele>1792</ele>
        <time>2015-10-28T13:20:52Z</time>
      </trkpt>
      <trkpt lat="44.05121" lon="7.2095">
        <ele>1772</ele>
        <time>2015-10-28T13:22:52Z</time>
      </trkpt>
      <trkpt lat="44.05119" lon="7.20975">
        <ele>1768</ele>
        <time>2015-10-28T13:24:52Z</time>
      </trkpt>
      <trkpt lat="44.05103" lon="7.21057">
        <ele>1748</ele>
        <time>2015-10-28T13:26:52Z</time>
      </trkpt>
      <trkpt lat="44.05098" lon="7.21093">
        <ele>1737</ele>
        <time>2015-10-28T13:28:52Z</time>
      </trkpt>
      <trkpt lat="44.05107" lon="7.21105">
        <ele>1733</ele>
        <time>2015-10-28T13:30:52Z</time>
      </trkpt>
      <trkpt lat="44.05138" lon="7.21111">
        <ele>1729</ele>
        <time>2015-10-28T13:32:52Z</time>
      </trkpt>
      <trkpt lat="44.05142" lon="7.21122">
        <ele>1727</ele>
        <time>2015-10-28T13:34:52Z</time>
      </trkpt>
      <trkpt lat="44.05117" lon="7.21142">
        <ele>1723</ele>
        <time>2015-10-28T13:36:52Z</time>
      </trkpt>
      <trkpt lat="44.05121" lon="7.21152">
        <ele>1721</ele>
        <time>2015-10-28T13:38:52Z</time>
      </trkpt>
      <trkpt lat="44.05181" lon="7.21162">
        <ele>1717</ele>
        <time>2015-10-28T13:40:52Z</time>
      </trkpt>
      <trkpt lat="44.05197" lon="7.21169">
        <ele>1713</ele>
        <time>2015-10-28T13:42:52Z</time>
      </trkpt>
      <trkpt lat="44.0527" lon="7.2126">
        <ele>1711</ele>
        <time>2015-10-28T13:44:52Z</time>
      </trkpt>
      <trkpt lat="44.05286" lon="7.21283">
        <ele>1711</ele>
        <time>2015-10-28T13:46:52Z</time>
      </trkpt>
      <trkpt lat="44.05298" lon="7.21335">
        <ele>1711</ele>
        <time>2015-10-28T13:48:52Z</time>
      </trkpt>
      <trkpt lat="44.05315" lon="7.21431">
        <ele>1708</ele>
        <time>2015-10-28T13:50:52Z</time>
      </trkpt>
      <trkpt lat="44.05337" lon="7.21547">
        <ele>1708</ele>
        <time>2015-10-28T13:52:52Z</time>
      </trkpt>
      <trkpt lat="44.05343" lon="7.21656">
        <ele>1701</ele>
        <time>2015-10-28T13:54:52Z</time>
      </trkpt>
      <trkpt lat="44.05379" lon="7.21684">
        <ele>1696</ele>
        <time>2015-10-28T13:56:52Z</time>
      </trkpt>
      <trkpt lat="44.05474" lon="7.21686">
        <ele>1707</ele>
        <time>2015-10-28T13:58:52Z</time>
      </trkpt>
      <trkpt lat="44.0549" lon="7.21723">
        <ele>1699</ele>
        <time>2015-10-28T14:00:52Z</time>
      </trkpt>
      <trkpt lat="44.05553" lon="7.21744">
        <ele>1708</ele>
        <time>2015-10-28T14:02:52Z</time>
      </trkpt>
      <trkpt lat="44.05586" lon="7.21824">
        <ele>1694</ele>
        <time>2015-10-28T14:04:52Z</time>
      </trkpt>
      <trkpt lat="44.05641" lon="7.2186">
        <ele>1701</ele>
        <time>2015-10-28T14:06:52Z</time>
      </trkpt>
      <trkpt lat="44.05655" lon="7.2195">
        <ele>1691</ele>
        <time>2015-10-28T14:08:52Z</time>
      </trkpt>
      <trkpt lat="44.05579" lon="7.22148">
        <ele>1665</ele>
        <time>2015-10-28T14:10:52Z</time>
      </trkpt>
      <trkpt lat="44.05515" lon="7.22313">
        <ele>1649</ele>
        <time>2015-10-28T14:12:52Z</time>
      </trkpt>
      <trkpt lat="44.05478" lon="7.22392">
        <ele>1635</ele>
        <time>2015-10-28T14:14:52Z</time>
      </trkpt>
      <trkpt lat="44.05493" lon="7.22416">
        <ele>1641</ele>
        <time>2015-10-28T14:16:52Z</time>
      </trkpt>
      <trkpt lat="44.05478" lon="7.2245">
        <ele>1629</ele>
        <time>2015-10-28T14:18:52Z</time>
      </trkpt>
      <trkpt lat="44.05539" lon="7.22465">
        <ele>1636</ele>
        <time>2015-10-28T14:20:52Z</time>
      </trkpt>
      <trkpt lat="44.05598" lon="7.22527">
        <ele>1624</ele>
        <time>2015-10-28T14:22:52Z</time>
      </trkpt>
      <trkpt lat="44.05638" lon="7.22605">
        <ele>1614</ele>
        <time>2015-10-28T14:24:52Z</time>
      </trkpt>
      <trkpt lat="44.05667" lon="7.22665">
        <ele>1608</ele>
        <time>2015-10-28T14:26:52Z</time>
      </trkpt>
      <trkpt lat="44.05724" lon="7.22675">
        <ele>1616</ele>
        <time>2015-10-28T14:28:52Z</time>
      </trkpt>
      <trkpt lat="44.05775" lon="7.22716">
        <ele>1614</ele>
        <time>2015-10-28T14:30:52Z</time>
      </trkpt>
      <trkpt lat="44.05814" lon="7.2271">
        <ele>1627</ele>
        <time>2015-10-28T14:32:52Z</time>
      </trkpt>
      <trkpt lat="44.05835" lon="7.22753">
        <ele>1619</ele>
        <time>2015-10-28T14:34:52Z</time>
      </trkpt>
      <trkpt lat="44.05932" lon="7.22826">
        <ele>1620</ele>
        <time>2015-10-28T14:36:52Z</time>
      </trkpt>
      <trkpt lat="44.05969" lon="7.22858">
        <ele>1622</ele>
        <time>2015-10-28T14:38:52Z</time>
      </trkpt>
      <trkpt lat="44.06047" lon="7.22847">
        <ele>1639</ele>
        <time>2015-10-28T14:40:52Z</time>
      </trkpt>
      <trkpt lat="44.0606" lon="7.22731">
        <ele>1632</ele>
        <time>2015-10-28T14:42:52Z</time>
      </trkpt>
      <trkpt lat="44.06047" lon="7.226">
        <ele>1623</ele>
        <time>2015-10-28T14:44:52Z</time>
      </trkpt>
      <trkpt lat="44.06071" lon="7.22504">
        <ele>1608</ele>
        <time>2015-10-28T14:46:52Z</time>
      </trkpt>
      <trkpt lat="44.06076" lon="7.22416">
        <ele>1606</ele>
        <time>2015-10-28T14:48:52Z</time>
      </trkpt>
      <trkpt lat="44.06125" lon="7.22281">
        <ele>1603</ele>
        <time>2015-10-28T14:50:52Z</time>
      </trkpt>
      <trkpt lat="44.06219" lon="7.22248">
        <ele>1583</ele>
        <time>2015-10-28T14:52:52Z</time>
      </trkpt>
      <trkpt lat="44.06264" lon="7.2216">
        <ele>1573</ele>
        <time>2015-10-28T14:54:52Z</time>
      </trkpt>
      <trkpt lat="44.06283" lon="7.2216">
        <ele>1566</ele>
        <time>2015-10-28T14:56:52Z</time>
      </trkpt>
      <trkpt lat="44.06346" lon="7.2204">
        <ele>1571</ele>
        <time>2015-10-28T14:58:52Z</time>
      </trkpt>
      <trkpt lat="44.06427" lon="7.22115">
        <ele>1569</ele>
        <time>2015-10-28T15:00:52Z</time>
      </trkpt>
      <trkpt lat="44.06492" lon="7.22113">
        <ele>1584</ele>
        <time>2015-10-28T15:02:52Z</time>
      </trkpt>
      <trkpt lat="44.06549" lon="7.22085">
        <ele>1589</ele>
        <time>2015-10-28T15:04:52Z</time>
      </trkpt>
      <trkpt lat="44.06626" lon="7.2201">
        <ele>1578</ele>
        <time>2015-10-28T15:06:52Z</time>
      </trkpt>
      <trkpt lat="44.06723" lon="7.21909">
        <ele>1561</ele>
        <time>2015-10-28T15:08:52Z</time>
      </trkpt>
      <trkpt lat="44.06771" lon="7.21858">
        <ele>1550</ele>
        <time>2015-10-28T15:10:52Z</time>
      </trkpt>
      <trkpt lat="44.06908" lon="7.21851">
        <ele>1551</ele>
        <time>2015-10-28T15:12:52Z</time>
      </trkpt>
      <trkpt lat="44.06986" lon="7.21877">
        <ele>1539</ele>
        <time>2015-10-28T15:14:52Z</time>
      </trkpt>
      <trkpt lat="44.0704" lon="7.21954">
        <ele>1536</ele>
        <time>2015-10-28T15:16:52Z</time>
      </trkpt>
      <trkpt lat="44.07073" lon="7.22014">
        <ele>1525</ele>
        <time>2015-10-28T15:18:52Z</time>
      </trkpt>
      <trkpt lat="44.07075" lon="7.2212">
        <ele>1519</ele>
        <time>2015-10-28T15:20:52Z</time>
      </trkpt>
      <trkpt lat="44.07075" lon="7.22216">
        <ele>1511</ele>
        <time>2015-10-28T15:22:52Z</time>
      </trkpt>
      <trkpt lat="44.07103" lon="7.22133">
        <ele>1512</ele>
        <time>2015-10-28T15:24:52Z</time>
      </trkpt>
      <trkpt lat="44.07154" lon="7.22064">
        <ele>1503</ele>
        <time>2015-10-28T15:26:52Z</time>
      </trkpt>
    </trkseg>
  </trk>
</gpx>